Time;durP1;ratioP1;P1;durP2;ratioP2;P2;SDS_P1;SDS_P2;PMS_P1;PMS_P2;Temp;Humidity;BMP_temperature;BMP_pressure;BME280_temperature;BME280_humidity;BME280_pressure;Samples;Min_cycle;Max_cycle;Signal;HPM_P1;HPM_P2
2022/02/14 11:36:59;;;;;;;3.80;1.07;;;12.10;70.90;;;;;;6158836;22;1275983;-71
2022/02/14 11:39:29;;;;;;;1.93;0.80;;;12.20;70.00;;;;;;6221059;23;20213;-70
2022/02/14 11:41:59;;;;;;;2.17;1.00;;;12.30;68.70;;;;;;6248457;23;20398;-72
2022/02/14 11:44:25;;;;;;;6.77;1.10;;;12.40;67.70;;;;;;6220873;23;20376;-71
2022/02/14 11:46:54;;;;;;;3.57;1.37;;;12.40;67.10;;;;;;6190866;23;20487;-73
2022/02/14 11:49:37;;;;;;;2.60;1.23;;;12.30;67.20;;;;;;6217342;23;20429;-71
2022/02/14 11:52:08;;;;;;;1.90;1.10;;;12.40;68.20;;;;;;6190129;23;20503;-73
2022/02/14 11:54:48;;;;;;;3.23;2.93;;;12.60;67.00;;;;;;6191860;23;20924;-71
2022/02/14 11:57:49;;;;;;;4.90;1.03;;;12.80;66.50;;;;;;6218775;23;20354;-69
2022/02/14 12:00:15;;;;;;;3.70;0.80;;;12.80;63.60;;;;;;6125538;23;20395;-71
2022/02/14 12:03:11;;;;;;;2.23;0.70;;;12.80;63.50;;;;;;6215980;23;20641;-70
2022/02/14 12:05:43;;;;;;;6.20;0.90;;;12.80;62.60;;;;;;6215286;23;20172;-70
2022/02/14 12:08:12;;;;;;;1.10;0.70;;;12.70;61.70;;;;;;6217720;23;20484;-73
2022/02/14 12:10:57;;;;;;;4.70;1.30;;;12.30;62.20;;;;;;6217021;23;20405;-74
2022/02/14 12:13:24;;;;;;;1.60;0.90;;;12.30;63.30;;;;;;6218154;23;20399;-72
2022/02/14 12:21:20;;;;;;;5.63;0.97;;;12.50;63.90;;;;;;6218306;23;20440;-73
2022/02/14 12:23:54;;;;;;;4.80;0.90;;;12.50;63.80;;;;;;6218888;23;20377;-73
2022/02/14 12:26:24;;;;;;;4.53;1.23;;;12.60;63.80;;;;;;6219058;23;20389;-73
2022/02/14 12:31:49;;;;;;;2.40;1.20;;;12.60;63.50;;;;;;6144245;23;119680;-73
2022/02/14 12:34:23;;;;;;;3.10;1.43;;;12.50;63.10;;;;;;6153192;23;22698;-70
2022/02/14 12:36:55;;;;;;;2.97;1.10;;;12.40;62.90;;;;;;6179446;23;20425;-70
2022/02/14 12:39:31;;;;;;;3.47;0.97;;;12.40;62.80;;;;;;6153631;23;20379;-71
2022/02/14 12:41:57;;;;;;;3.20;1.33;;;12.40;62.60;;;;;;6154682;23;20375;-72
2022/02/14 12:44:28;;;;;;;2.40;1.20;;;12.30;62.20;;;;;;6155876;23;20713;-72
2022/02/14 12:46:54;;;;;;;2.00;0.80;;;12.40;61.00;;;;;;6155939;23;20430;-70
2022/02/14 12:49:20;;;;;;;1.73;0.80;;;12.30;58.80;;;;;;6159956;23;20374;-70
2022/02/14 12:51:46;;;;;;;2.40;1.13;;;12.20;58.40;;;;;;6134540;23;20167;-70
2022/02/14 12:54:12;;;;;;;3.63;0.90;;;12.20;58.60;;;;;;6157496;23;20234;-71
2022/02/14 12:56:43;;;;;;;1.80;0.87;;;12.20;58.90;;;;;;6156542;23;20383;-71
2022/02/14 12:59:13;;;;;;;1.77;0.90;;;12.30;59.10;;;;;;6157244;23;20143;-71
2022/02/14 13:01:41;;;;;;;4.07;1.10;;;12.30;59.10;;;;;;6156752;23;20461;-72
2022/02/14 13:04:09;;;;;;;3.43;0.97;;;12.30;59.40;;;;;;6156994;23;20870;-74
2022/02/14 13:06:51;;;;;;;9.47;1.33;;;12.30;58.90;;;;;;6157082;23;20801;-71
2022/02/14 13:09:32;;;;;;;5.20;1.00;;;12.30;58.90;;;;;;6154758;23;20781;-71
2022/02/14 13:12:04;;;;;;;1.43;0.70;;;12.30;59.00;;;;;;6153469;23;20422;-71
2022/02/14 13:14:45;;;;;;;4.03;1.60;;;12.40;59.50;;;;;;6154938;23;20379;-70
2022/02/14 13:17:13;;;;;;;3.23;0.97;;;12.60;58.60;;;;;;6156332;23;20730;-72
2022/02/14 13:19:52;;;;;;;3.60;1.73;;;12.70;57.40;;;;;;6155688;23;20405;-71
2022/02/14 13:22:38;;;;;;;3.23;1.00;;;12.80;56.40;;;;;;6155281;23;20409;-73
2022/02/14 13:25:19;;;;;;;3.83;1.10;;;12.70;56.40;;;;;;6157248;23;20917;-70
2022/02/14 13:27:50;;;;;;;3.30;0.97;;;12.70;56.80;;;;;;6163513;23;20362;-70
2022/02/14 13:30:18;;;;;;;3.60;1.20;;;12.70;56.20;;;;;;6162885;23;20378;-73
2022/02/14 13:32:49;;;;;;;5.53;1.33;;;12.60;56.30;;;;;;6159218;23;20494;-74
2022/02/14 13:35:20;;;;;;;3.80;1.03;;;12.60;56.80;;;;;;6157503;23;20402;-71
2022/02/14 13:37:47;;;;;;;3.97;1.63;;;12.60;56.50;;;;;;6185728;23;20747;-71
2022/02/14 13:40:31;;;;;;;3.83;2.00;;;12.60;56.30;;;;;;6185537;23;20468;-70
2022/02/14 13:43:06;;;;;;;2.47;1.20;;;12.50;56.90;;;;;;6186271;23;20424;-71
2022/02/14 13:45:52;;;;;;;3.00;1.50;;;12.50;56.90;;;;;;6184883;23;20472;-71
2022/02/14 13:48:22;;;;;;;4.20;0.90;;;12.50;57.10;;;;;;6185340;23;20366;-70
2022/02/14 13:50:56;;;;;;;4.77;1.10;;;12.40;56.80;;;;;;6185124;23;20741;-71
2022/02/14 13:53:29;;;;;;;4.80;0.90;;;12.30;56.40;;;;;;6184285;23;20710;-70
2022/02/14 13:56:16;;;;;;;5.30;1.17;;;12.30;56.40;;;;;;6183323;23;20401;-71
2022/02/14 13:58:44;;;;;;;2.10;1.10;;;12.20;56.70;;;;;;6182420;23;20514;-70
2022/02/14 14:01:35;;;;;;;5.90;0.90;;;12.10;56.90;;;;;;6184533;23;20431;-71
2022/02/14 14:04:25;;;;;;;4.00;1.20;;;12.10;57.40;;;;;;6178313;23;20392;-71
2022/02/14 14:07:11;;;;;;;5.70;1.53;;;12.10;57.90;;;;;;6182713;23;20421;-78
2022/02/14 14:09:40;;;;;;;3.40;1.20;;;12.10;58.10;;;;;;6183008;23;20448;-71
2022/02/14 14:12:12;;;;;;;3.23;1.27;;;12.10;58.20;;;;;;6181885;23;20495;-70
2022/02/14 14:14:40;;;;;;;2.70;1.57;;;12.20;58.50;;;;;;6184110;23;20441;-71
2022/02/14 14:17:09;;;;;;;4.80;1.63;;;12.20;58.00;;;;;;6183117;23;20386;-72
2022/02/14 14:19:51;;;;;;;1.60;1.20;;;12.20;58.20;;;;;;6184832;23;20416;-73
2022/02/14 14:22:18;;;;;;;2.93;1.57;;;12.20;58.30;;;;;;6185645;23;20449;-71
2022/02/14 14:24:45;;;;;;;2.37;1.53;;;12.20;57.80;;;;;;6183567;23;20765;-72
2022/02/14 14:27:12;;;;;;;3.40;1.13;;;12.10;57.30;;;;;;6183060;23;20392;-70
2022/02/14 14:29:41;;;;;;;3.37;1.37;;;12.00;57.70;;;;;;6181421;23;20389;-72
2022/02/14 14:32:09;;;;;;;4.83;1.57;;;12.00;57.90;;;;;;6183324;23;20453;-71
2022/02/14 14:34:35;;;;;;;5.60;1.00;;;12.00;58.60;;;;;;6182446;23;20821;-70
2022/02/14 14:37:03;;;;;;;2.90;1.33;;;12.00;58.20;;;;;;6182575;23;20413;-70
2022/02/14 14:39:29;;;;;;;22.20;12.20;;;11.90;58.50;;;;;;6182321;23;20806;-71
2022/02/14 14:41:55;;;;;;;18.00;9.30;;;11.90;58.90;;;;;;6184264;23;20377;-70
2022/02/14 14:44:22;;;;;;;15.63;9.20;;;11.90;58.90;;;;;;6184394;23;20146;-71
2022/02/14 14:46:49;;;;;;;6.00;3.30;;;12.00;59.40;;;;;;6184283;23;20173;-71
2022/02/14 14:49:15;;;;;;;6.07;1.93;;;12.00;58.90;;;;;;6158083;23;20740;-71
2022/02/14 14:51:41;;;;;;;4.10;1.70;;;12.00;58.90;;;;;;6184011;23;20409;-71
2022/02/14 14:54:07;;;;;;;1.47;0.93;;;11.90;58.20;;;;;;6183700;23;20134;-71
2022/02/14 14:56:33;;;;;;;5.33;2.10;;;11.90;58.30;;;;;;6184552;23;20860;-72
2022/02/14 14:58:59;;;;;;;2.10;1.13;;;11.90;58.60;;;;;;6184693;23;20157;-70
2022/02/14 15:01:25;;;;;;;4.00;2.73;;;12.00;58.70;;;;;;6185047;23;20845;-72
2022/02/14 15:03:51;;;;;;;3.40;1.83;;;11.90;57.80;;;;;;6184918;23;20166;-69
2022/02/14 15:06:18;;;;;;;4.30;0.93;;;11.90;58.40;;;;;;6183011;23;20257;-70
2022/02/14 15:08:46;;;;;;;8.17;2.00;;;12.00;58.30;;;;;;6185186;23;20225;-71
2022/02/14 15:11:14;;;;;;;5.37;1.90;;;12.00;58.00;;;;;;6185480;23;20417;-70
2022/02/14 15:13:41;;;;;;;4.70;1.83;;;12.00;58.30;;;;;;6189088;23;20380;-70
2022/02/14 15:16:07;;;;;;;3.67;1.00;;;12.10;58.80;;;;;;6189424;23;20713;-70
2022/02/14 15:18:33;;;;;;;5.60;1.40;;;12.20;57.30;;;;;;6161886;23;20456;-71
2022/02/14 15:20:59;;;;;;;2.60;1.10;;;12.20;57.40;;;;;;6185232;23;20366;-72
2022/02/14 15:23:25;;;;;;;3.10;1.20;;;12.20;56.60;;;;;;6184549;23;20806;-72
2022/02/14 15:25:51;;;;;;;2.80;1.53;;;12.10;56.80;;;;;;6184284;23;20396;-71
2022/02/14 15:28:17;;;;;;;4.33;1.67;;;12.10;57.10;;;;;;6184770;23;20146;-70
2022/02/14 15:30:42;;;;;;;3.67;1.10;;;12.00;57.50;;;;;;6184813;23;20158;-71
2022/02/14 15:33:08;;;;;;;4.13;1.43;;;11.90;57.20;;;;;;6184202;23;20181;-70
2022/02/14 15:35:34;;;;;;;3.70;1.30;;;11.90;57.50;;;;;;6183761;23;20166;-71
2022/02/14 15:37:59;;;;;;;5.67;1.10;;;11.80;57.80;;;;;;6184391;23;20135;-72
2022/02/14 15:40:25;;;;;;;8.07;2.50;;;11.90;57.80;;;;;;6188511;23;20143;-72
2022/02/14 15:42:51;;;;;;;2.73;1.60;;;11.80;58.10;;;;;;6184470;23;20203;-72
2022/02/14 15:45:17;;;;;;;2.63;1.53;;;11.90;58.10;;;;;;6185070;23;20158;-72
2022/02/14 15:47:42;;;;;;;3.53;1.47;;;11.80;58.30;;;;;;6185406;23;20135;-72
2022/02/14 15:50:09;;;;;;;3.83;1.10;;;11.80;58.30;;;;;;6183123;23;20143;-70
2022/02/14 15:52:35;;;;;;;5.70;1.20;;;11.80;58.40;;;;;;6184590;23;20270;-72
2022/02/14 15:55:01;;;;;;;3.73;1.33;;;11.80;58.80;;;;;;6185572;23;20378;-71
2022/02/14 15:57:27;;;;;;;2.60;1.30;;;11.80;58.70;;;;;;6184068;23;20135;-70
2022/02/14 15:59:53;;;;;;;3.03;0.97;;;11.70;58.70;;;;;;6157701;23;20135;-71
2022/02/14 16:02:19;;;;;;;5.20;1.80;;;11.60;58.80;;;;;;6186666;23;20378;-72
2022/02/14 16:04:45;;;;;;;4.30;1.87;;;11.50;59.00;;;;;;6185534;23;20756;-74
2022/02/14 16:07:11;;;;;;;6.47;1.63;;;11.40;59.30;;;;;;6187463;23;20627;-71
2022/02/14 16:09:41;;;;;;;6.80;1.80;;;11.40;59.50;;;;;;6187900;23;20489;-71
2022/02/14 16:12:07;;;;;;;9.30;1.90;;;11.30;59.60;;;;;;6187572;23;20182;-70
2022/02/14 16:14:33;;;;;;;6.57;1.30;;;11.30;59.80;;;;;;6186848;23;20378;-73
2022/02/14 16:16:59;;;;;;;4.43;1.73;;;11.20;59.90;;;;;;6185710;23;20498;-70
2022/02/14 16:19:25;;;;;;;7.40;1.47;;;11.30;60.10;;;;;;6184243;23;20373;-70
2022/02/14 16:21:50;;;;;;;7.10;3.30;;;11.20;60.60;;;;;;6188996;23;20482;-72
2022/02/14 16:24:18;;;;;;;7.40;2.30;;;11.30;60.70;;;;;;6162524;23;20135;-72
2022/02/14 16:26:45;;;;;;;1.37;0.87;;;11.30;60.50;;;;;;6185306;23;20588;-71
2022/02/14 16:29:11;;;;;;;2.77;1.20;;;11.30;60.00;;;;;;6183452;23;20389;-71
2022/02/14 16:31:37;;;;;;;3.17;1.13;;;11.30;60.10;;;;;;6183797;23;20413;-71
2022/02/14 16:34:04;;;;;;;5.77;1.23;;;11.20;60.20;;;;;;6184470;23;20476;-73
2022/02/14 16:36:30;;;;;;;5.10;1.77;;;11.10;60.40;;;;;;6185218;23;20406;-73
2022/02/14 16:38:56;;;;;;;6.77;1.80;;;11.00;60.70;;;;;;6185644;23;20358;-71
2022/02/14 16:41:23;;;;;;;4.40;2.10;;;10.90;61.70;;;;;;6183922;23;20392;-71
2022/02/14 16:43:52;;;;;;;2.77;1.40;;;10.90;61.70;;;;;;6184927;23;20374;-72
2022/02/14 16:46:19;;;;;;;2.87;1.27;;;10.90;62.00;;;;;;6184294;23;20444;-72
2022/02/14 16:48:45;;;;;;;5.93;1.70;;;10.90;62.50;;;;;;6183688;23;20412;-71
2022/02/14 16:51:14;;;;;;;5.10;1.90;;;10.80;62.80;;;;;;6185346;23;20418;-72
2022/02/14 16:53:40;;;;;;;8.57;1.47;;;10.90;63.80;;;;;;6185332;23;20142;-72
2022/02/14 16:56:06;;;;;;;3.93;1.60;;;10.90;64.10;;;;;;6184906;23;20489;-70
2022/02/14 16:58:32;;;;;;;7.07;2.83;;;11.00;64.00;;;;;;6185379;23;20373;-72
2022/02/14 17:00:57;;;;;;;7.60;1.93;;;11.00;64.00;;;;;;6185694;23;20153;-71
2022/02/14 17:03:24;;;;;;;3.13;1.23;;;11.00;64.00;;;;;;6184206;23;20578;-73
2022/02/14 17:05:50;;;;;;;6.47;3.03;;;10.90;64.20;;;;;;6184530;23;20170;-71
2022/02/14 17:08:16;;;;;;;8.33;2.00;;;10.80;64.60;;;;;;6182973;23;20378;-73
2022/02/14 17:10:42;;;;;;;5.40;2.47;;;10.80;64.90;;;;;;6185269;23;20961;-70
2022/02/14 17:13:09;;;;;;;3.43;1.50;;;10.70;65.10;;;;;;6185333;23;20145;-71
2022/02/14 17:15:35;;;;;;;2.77;1.90;;;10.70;65.30;;;;;;6183227;23;20155;-71
2022/02/14 17:18:02;;;;;;;5.40;1.90;;;10.60;65.60;;;;;;6183525;23;20442;-70
2022/02/14 17:20:28;;;;;;;5.80;1.80;;;10.60;66.20;;;;;;6184542;23;20358;-73
2022/02/14 17:22:55;;;;;;;4.40;1.80;;;10.50;66.40;;;;;;6184397;23;20398;-71
2022/02/14 17:25:21;;;;;;;5.10;2.40;;;10.60;66.40;;;;;;6184833;23;20166;-70
2022/02/14 17:27:46;;;;;;;3.67;1.73;;;10.60;66.40;;;;;;6184818;23;20374;-70
2022/02/14 17:30:13;;;;;;;6.90;1.80;;;10.60;66.40;;;;;;6186420;23;20170;-71
2022/02/14 17:32:42;;;;;;;2.90;1.50;;;10.70;66.40;;;;;;6158328;23;20260;-71
2022/02/14 17:35:15;;;;;;;2.20;1.03;;;10.70;66.00;;;;;;5069430;28;21097;-71
2022/02/14 17:37:44;;;;;;;3.60;1.20;;;10.70;65.60;;;;;;5069959;28;20400;-73
2022/02/14 17:40:10;;;;;;;5.63;2.20;;;10.60;65.60;;;;;;5059873;28;20249;-69
2022/02/14 17:42:37;;;;;;;4.70;1.60;;;10.60;65.90;;;;;;5066037;28;20979;-72
2022/02/14 17:45:04;;;;;;;3.90;1.57;;;10.60;65.80;;;;;;5071023;28;20419;-71
2022/02/14 17:47:30;;;;;;;4.30;1.83;;;10.50;65.70;;;;;;5070825;28;20420;-73
2022/02/14 17:49:55;;;;;;;2.70;1.53;;;10.40;65.70;;;;;;5064933;28;20857;-71
2022/02/14 17:52:21;;;;;;;10.40;1.80;;;10.30;65.90;;;;;;5079573;28;20227;-70
2022/02/14 17:54:47;;;;;;;2.47;1.50;;;10.20;66.00;;;;;;5077181;28;20561;-70
2022/02/14 17:57:18;;;;;;;2.93;1.60;;;10.20;66.50;;;;;;5055282;28;20488;-71
2022/02/14 17:59:44;;;;;;;3.00;1.00;;;10.10;66.60;;;;;;5071705;28;20422;-70
2022/02/14 18:02:10;;;;;;;4.60;1.63;;;10.10;67.20;;;;;;5060121;28;20502;-71
2022/02/14 18:04:36;;;;;;;8.07;1.27;;;10.10;67.40;;;;;;5050723;28;20412;-71
2022/02/14 18:07:02;;;;;;;3.63;1.30;;;10.10;67.60;;;;;;5049486;28;20963;-72
2022/02/14 18:09:28;;;;;;;4.33;2.37;;;10.00;68.00;;;;;;5074520;28;20250;-70
2022/02/14 18:11:57;;;;;;;7.30;2.53;;;10.00;68.60;;;;;;5048691;28;20396;-70
2022/02/14 18:14:23;;;;;;;3.67;1.73;;;9.90;70.00;;;;;;5046202;28;20214;-70
2022/02/14 18:16:49;;;;;;;6.33;2.13;;;9.90;70.20;;;;;;5047883;28;20420;-70
2022/02/14 18:19:15;;;;;;;7.30;2.17;;;9.90;70.50;;;;;;5048405;28;20415;-69
2022/02/14 18:21:40;;;;;;;6.80;2.27;;;9.90;71.10;;;;;;5048128;28;20227;-70
2022/02/14 18:24:07;;;;;;;3.77;1.80;;;9.90;71.40;;;;;;5047766;28;20246;-70
2022/02/14 18:26:34;;;;;;;14.07;2.27;;;9.90;72.10;;;;;;5052838;28;20205;-71
2022/02/14 18:29:03;;;;;;;5.40;2.30;;;9.80;72.40;;;;;;5070015;28;20419;-73
2022/02/14 18:31:31;;;;;;;9.10;2.27;;;9.80;72.90;;;;;;5054148;28;20432;-73
2022/02/14 18:33:57;;;;;;;7.90;2.57;;;9.70;73.30;;;;;;5063037;28;20848;-69
2022/02/14 18:36:23;;;;;;;6.70;2.27;;;9.60;73.70;;;;;;5071418;28;20480;-71
2022/02/14 18:38:50;;;;;;;5.13;2.13;;;9.50;74.20;;;;;;5073174;28;20427;-71
2022/02/14 18:41:16;;;;;;;8.97;3.47;;;9.40;74.70;;;;;;5080247;28;20912;-72
2022/02/14 18:43:42;;;;;;;10.57;2.67;;;9.30;75.10;;;;;;5066513;28;20431;-72
2022/02/14 18:46:09;;;;;;;5.83;2.83;;;9.30;75.80;;;;;;5047228;28;20932;-72
2022/02/14 18:48:35;;;;;;;7.83;3.47;;;9.20;76.10;;;;;;5054630;28;20626;-72
2022/02/14 18:51:02;;;;;;;8.50;2.43;;;9.10;76.50;;;;;;5056918;28;20422;-72
2022/02/14 18:53:28;;;;;;;5.93;2.40;;;9.10;76.90;;;;;;5055719;28;20460;-71
2022/02/14 18:55:54;;;;;;;9.93;2.90;;;9.00;77.20;;;;;;5055416;28;20444;-70
2022/02/14 18:58:24;;;;;;;6.80;3.63;;;9.00;77.70;;;;;;5049989;28;20503;-72
2022/02/14 19:00:49;;;;;;;4.53;2.43;;;8.90;78.00;;;;;;5053282;28;20500;-71
2022/02/14 19:03:15;;;;;;;6.63;2.17;;;8.90;78.60;;;;;;5040957;28;20520;-72
2022/02/14 19:05:42;;;;;;;11.23;3.80;;;8.80;79.80;;;;;;5039542;28;20190;-72
2022/02/14 19:08:09;;;;;;;5.60;2.50;;;8.80;79.40;;;;;;5039470;28;20173;-69
2022/02/14 19:10:35;;;;;;;6.53;3.10;;;8.80;80.00;;;;;;5039922;28;20519;-70
2022/02/14 19:13:01;;;;;;;11.00;5.00;;;8.80;80.80;;;;;;5049389;28;20419;-71
2022/02/14 19:15:27;;;;;;;5.50;2.93;;;8.80;80.60;;;;;;5037819;28;20445;-72
2022/02/14 19:17:53;;;;;;;5.37;2.73;;;8.80;80.60;;;;;;5035873;28;20163;-72
2022/02/14 19:20:18;;;;;;;6.40;2.77;;;8.90;80.70;;;;;;5036687;28;20167;-71
2022/02/14 19:22:45;;;;;;;10.07;2.63;;;8.90;80.50;;;;;;5046731;28;20219;-70
2022/02/14 19:25:12;;;;;;;6.03;2.17;;;9.00;80.50;;;;;;5041685;28;20207;-73
2022/02/14 19:27:39;;;;;;;7.77;3.23;;;9.00;80.30;;;;;;5035647;28;20417;-73
2022/02/14 19:30:05;;;;;;;3.87;2.13;;;9.00;80.20;;;;;;5041100;28;20448;-70
2022/02/14 19:32:31;;;;;;;6.23;2.40;;;9.00;80.70;;;;;;5047463;28;20439;-70
2022/02/14 19:34:58;;;;;;;8.93;2.67;;;9.00;79.80;;;;;;5042712;28;20468;-72
2022/02/14 19:37:24;;;;;;;4.57;2.10;;;9.00;79.30;;;;;;5044344;28;20205;-70
2022/02/14 19:39:55;;;;;;;4.50;2.70;;;9.00;79.20;;;;;;5044690;28;20492;-73
2022/02/14 19:42:21;;;;;;;5.50;2.77;;;9.10;79.10;;;;;;5043505;28;20770;-70
2022/02/14 19:44:47;;;;;;;4.23;2.17;;;9.10;78.70;;;;;;5044254;28;20485;-72
2022/02/14 19:47:13;;;;;;;5.17;2.50;;;9.00;78.40;;;;;;5045094;28;20169;-70
2022/02/14 19:53:26;;;;;;;7.43;2.40;;;9.00;78.30;;;;;;5038521;28;20456;-72
2022/02/14 19:55:52;;;;;;;5.60;2.13;;;9.00;78.20;;;;;;5041600;28;20220;-72
2022/02/14 19:58:19;;;;;;;3.43;1.77;;;9.00;78.20;;;;;;5038127;28;20163;-73
2022/02/14 20:00:45;;;;;;;13.47;2.27;;;8.90;78.10;;;;;;5036748;28;20170;-70
2022/02/14 20:03:11;;;;;;;6.63;2.10;;;8.90;78.10;;;;;;5044848;28;20448;-70
2022/02/14 20:05:36;;;;;;;11.27;2.70;;;8.90;78.10;;;;;;5033642;28;20433;-73
2022/02/14 20:08:02;;;;;;;8.00;2.43;;;8.90;78.20;;;;;;5045402;28;20412;-71
2022/02/14 20:10:28;;;;;;;5.53;2.30;;;8.80;78.10;;;;;;5053623;28;20660;-73
2022/02/14 20:12:54;;;;;;;14.37;2.73;;;8.70;78.10;;;;;;5034131;28;20500;-72
2022/02/14 20:15:21;;;;;;;2.93;1.60;;;8.70;78.40;;;;;;5035007;28;20248;-71
2022/02/14 20:17:46;;;;;;;4.90;2.50;;;8.60;78.70;;;;;;5036297;28;20425;-70
2022/02/14 20:20:15;;;;;;;3.20;2.20;;;8.50;79.00;;;;;;5047736;28;20455;-71
2022/02/14 20:22:42;;;;;;;10.03;4.30;;;8.40;79.20;;;;;;5045447;28;20267;-74
2022/02/14 20:25:09;;;;;;;5.93;2.10;;;8.40;79.50;;;;;;5044320;28;20428;-71
2022/02/14 20:27:38;;;;;;;6.17;1.97;;;8.30;79.70;;;;;;5051895;28;20420;-75
2022/02/14 20:30:08;;;;;;;8.63;3.13;;;8.30;80.00;;;;;;5039670;28;20790;-71
2022/02/14 20:32:34;;;;;;;3.90;1.80;;;8.20;80.30;;;;;;5041593;28;20432;-70
2022/02/14 20:34:59;;;;;;;6.57;2.50;;;8.20;80.50;;;;;;5033916;28;20453;-71
2022/02/14 20:37:25;;;;;;;11.00;3.17;;;8.10;80.70;;;;;;5051032;28;20177;-72
2022/02/14 20:39:56;;;;;;;9.97;2.60;;;8.10;80.80;;;;;;5056476;28;20196;-72
2022/02/14 20:42:23;;;;;;;12.83;2.70;;;8.10;81.20;;;;;;5048697;28;20244;-72
2022/02/14 20:44:49;;;;;;;3.60;1.70;;;8.10;81.30;;;;;;5046370;28;20498;-72
2022/02/14 20:47:14;;;;;;;8.03;2.57;;;8.20;81.70;;;;;;5044763;28;20579;-72
2022/02/14 20:49:40;;;;;;;8.17;2.97;;;8.20;81.50;;;;;;5044443;28;20170;-71
2022/02/14 20:52:07;;;;;;;9.13;2.70;;;8.20;81.30;;;;;;5040185;28;20670;-71
2022/02/14 20:54:34;;;;;;;4.90;2.43;;;8.30;81.30;;;;;;5048850;28;20186;-71
2022/02/14 20:57:01;;;;;;;7.23;3.23;;;8.30;81.30;;;;;;5039190;28;20475;-72
2022/02/14 20:59:27;;;;;;;2.90;1.73;;;8.30;81.30;;;;;;5051608;28;20424;-72
2022/02/14 21:01:53;;;;;;;6.93;2.60;;;8.40;81.40;;;;;;5049042;28;20418;-71
2022/02/14 21:04:21;;;;;;;7.60;2.17;;;8.40;81.20;;;;;;5051378;28;20182;-71
2022/02/14 21:06:47;;;;;;;6.43;1.70;;;8.40;81.20;;;;;;5052193;28;20436;-69
2022/02/14 21:09:12;;;;;;;12.40;2.20;;;8.40;81.20;;;;;;5051411;28;20416;-71
2022/02/14 21:11:38;;;;;;;5.60;2.03;;;8.40;81.10;;;;;;5053619;28;20176;-73
2022/02/14 21:14:04;;;;;;;6.50;2.07;;;8.40;81.10;;;;;;5054393;28;20585;-73
2022/02/14 21:16:30;;;;;;;7.90;2.00;;;8.40;81.10;;;;;;5044378;28;20424;-71
2022/02/14 21:18:57;;;;;;;7.87;2.07;;;8.40;81.20;;;;;;5048991;28;20538;-72
2022/02/14 21:21:24;;;;;;;4.70;2.07;;;8.40;81.40;;;;;;5039370;28;20234;-70
2022/02/14 21:23:49;;;;;;;4.27;1.70;;;8.40;81.40;;;;;;5046678;28;20419;-71
2022/02/14 21:26:15;;;;;;;6.10;2.40;;;8.40;81.50;;;;;;5047722;28;20773;-70
2022/02/14 21:28:41;;;;;;;10.70;1.67;;;8.40;81.50;;;;;;5043583;28;20658;-73
2022/02/14 21:31:07;;;;;;;5.77;3.10;;;8.40;81.60;;;;;;5044459;28;20188;-72
2022/02/14 21:33:32;;;;;;;7.67;1.60;;;8.40;81.60;;;;;;5052941;28;20470;-72
2022/02/14 21:35:58;;;;;;;7.10;1.80;;;8.30;81.70;;;;;;5054876;28;20744;-72
2022/02/14 21:38:24;;;;;;;4.73;2.03;;;8.30;82.00;;;;;;5045875;28;20177;-73
2022/02/14 21:40:50;;;;;;;7.80;2.30;;;8.20;82.20;;;;;;5057494;28;20436;-76
2022/02/14 21:43:20;;;;;;;5.30;2.40;;;8.10;82.60;;;;;;5044542;28;20172;-72
2022/02/14 21:45:46;;;;;;;6.03;2.17;;;8.10;82.90;;;;;;5041762;28;20209;-71
2022/02/14 21:48:11;;;;;;;7.50;2.87;;;8.00;83.20;;;;;;5050003;28;20408;-72
2022/02/14 21:50:37;;;;;;;5.23;2.50;;;7.90;83.50;;;;;;5046554;28;20170;-73
2022/02/14 21:53:03;;;;;;;9.40;3.07;;;7.90;84.20;;;;;;5040446;28;20178;-70
2022/02/14 21:55:29;;;;;;;10.20;3.00;;;7.80;84.50;;;;;;5036270;28;20217;-73
2022/02/14 21:57:55;;;;;;;4.30;2.00;;;7.80;84.70;;;;;;5034048;28;20180;-72
2022/02/14 22:00:20;;;;;;;6.80;1.83;;;7.80;85.10;;;;;;5054227;28;20429;-71
2022/02/14 22:02:46;;;;;;;14.70;2.93;;;7.70;85.20;;;;;;5045308;28;20162;-71
2022/02/14 22:07:56;;;;;;;9.60;3.30;;;7.70;85.40;;;;;;5035006;28;20659;-70
2022/02/14 22:10:22;;;;;;;6.07;2.90;;;7.70;85.80;;;;;;5034700;28;20420;-72
2022/02/14 22:12:48;;;;;;;7.10;3.27;;;7.60;85.90;;;;;;5035090;28;20174;-74
2022/02/14 22:15:13;;;;;;;6.73;3.10;;;7.60;85.90;;;;;;5042910;28;20583;-75
2022/02/14 22:17:40;;;;;;;10.43;3.03;;;7.60;86.10;;;;;;5034989;28;20216;-72
2022/02/14 22:20:07;;;;;;;14.60;4.10;;;7.60;86.30;;;;;;5033898;28;20649;-70
2022/02/14 22:22:33;;;;;;;26.63;7.23;;;7.60;86.40;;;;;;5039625;28;20893;-70
2022/02/14 22:24:58;;;;;;;8.40;2.53;;;7.60;86.50;;;;;;5045609;28;20448;-72
2022/02/14 22:27:24;;;;;;;5.93;2.10;;;7.50;86.70;;;;;;5038761;28;20242;-72
2022/02/14 22:29:52;;;;;;;7.83;1.80;;;7.50;86.80;;;;;;5038905;28;20178;-69
2022/02/14 22:32:24;;;;;;;4.00;1.83;;;7.50;87.00;;;;;;5035818;28;20170;-71
2022/02/14 22:34:49;;;;;;;4.33;2.50;;;7.50;87.20;;;;;;5036940;28;20825;-70
2022/02/14 22:37:15;;;;;;;8.33;2.47;;;7.50;87.20;;;;;;5039216;28;20435;-69
2022/02/14 22:39:41;;;;;;;7.07;2.83;;;7.50;87.30;;;;;;5039649;28;20661;-71
2022/02/14 22:42:07;;;;;;;7.97;2.30;;;7.50;87.30;;;;;;5037879;28;20635;-74
2022/02/14 22:44:33;;;;;;;7.70;2.80;;;7.50;87.70;;;;;;5020476;28;20646;-71
2022/02/14 22:47:00;;;;;;;9.93;2.27;;;7.40;87.60;;;;;;5038351;28;20455;-72
2022/02/14 22:49:26;;;;;;;7.27;2.33;;;7.40;87.70;;;;;;5038219;28;20417;-73
2022/02/14 22:51:51;;;;;;;8.40;1.70;;;7.40;87.90;;;;;;5038693;28;20431;-70
2022/02/14 22:54:17;;;;;;;6.53;1.90;;;7.40;87.90;;;;;;5037015;28;20452;-71
2022/02/14 22:56:43;;;;;;;5.17;1.90;;;7.40;88.10;;;;;;5036650;28;20186;-73
2022/02/14 22:59:09;;;;;;;3.50;1.90;;;7.40;88.30;;;;;;5052348;28;20444;-72
2022/02/14 23:04:20;;;;;;;4.13;2.20;;;7.40;88.30;;;;;;5044437;28;20425;-69
2022/02/14 23:14:59;;;;;;;11.37;1.93;;;7.30;88.70;;;;;;5040179;28;20452;-75
2022/02/14 23:17:29;;;;;;;4.90;1.90;;;7.20;89.10;;;;;;5070830;28;20420;-76
2022/02/14 23:19:55;;;;;;;3.70;2.33;;;7.20;89.20;;;;;;5072490;28;20942;-76
2022/02/14 23:22:21;;;;;;;4.07;2.10;;;7.20;89.40;;;;;;5069859;28;20413;-77
2022/02/14 23:24:51;;;;;;;7.13;2.33;;;7.20;89.60;;;;;;5073163;28;20413;-76
2022/02/14 23:27:18;;;;;;;5.83;2.13;;;7.10;89.70;;;;;;5071423;28;20242;-77
2022/02/14 23:29:44;;;;;;;10.23;3.23;;;7.10;89.90;;;;;;5070663;28;20415;-77
2022/02/14 23:32:09;;;;;;;3.47;2.10;;;7.10;90.10;;;;;;5068404;28;20412;-76
2022/02/14 23:34:43;;;;;;;6.57;2.10;;;7.10;90.20;;;;;;5068077;28;20197;-76
2022/02/14 23:37:11;;;;;;;2.80;1.57;;;7.10;90.20;;;;;;5072106;28;20203;-78
2022/02/14 23:39:39;;;;;;;5.83;2.47;;;7.20;90.20;;;;;;5078517;28;20413;-75
2022/02/14 23:42:05;;;;;;;9.43;2.20;;;7.20;90.20;;;;;;5087781;28;20479;-76
2022/02/14 23:44:30;;;;;;;16.30;3.33;;;7.20;90.20;;;;;;5090942;28;20415;-77
2022/02/14 23:46:56;;;;;;;7.60;2.40;;;7.20;90.20;;;;;;5091337;28;20453;-76
2022/02/14 23:49:22;;;;;;;5.60;2.60;;;7.30;90.20;;;;;;5090728;28;20187;-76
2022/02/14 23:51:47;;;;;;;6.13;2.07;;;7.30;90.20;;;;;;5059775;28;20217;-75
2022/02/14 23:54:19;;;;;;;9.33;2.20;;;7.30;90.20;;;;;;5045604;28;20240;-76
2022/02/14 23:56:44;;;;;;;7.97;2.27;;;7.30;90.20;;;;;;5045856;28;20444;-76
2022/02/14 23:59:10;;;;;;;5.87;2.43;;;7.30;90.20;;;;;;5057737;28;20408;-75
